Time;durP1;ratioP1;P1;durP2;ratioP2;P2;SDS_P1;SDS_P2;PMS_P1;PMS_P2;Temp;Humidity;BMP_temperature;BMP_pressure;BME280_temperature;BME280_humidity;BME280_pressure;Samples;Min_cycle;Max_cycle;Signal;HPM_P1;HPM_P2
2023/06/28 00:01:41;;;;;;;0.20;0.10;;;;;;;;;;5022756;28;20064;-82
2023/06/28 00:04:07;;;;;;;0.20;0.10;;;;;;;;;;5004717;28;20065;-82
2023/06/28 00:06:33;;;;;;;0.20;0.10;;;;;;;;;;5004331;28;20045;-83
2023/06/28 00:08:59;;;;;;;0.20;0.10;;;;;;;;;;5009329;28;20517;-82
2023/06/28 00:11:26;;;;;;;0.20;0.10;;;;;;;;;;5008023;28;20152;-82
2023/06/28 00:13:55;;;;;;;0.20;0.10;;;;;;;;;;5008922;28;20391;-83
2023/06/28 00:16:28;;;;;;;0.20;0.10;;;;;;;;;;5023471;28;20179;-83
2023/06/28 00:19:00;;;;;;;0.20;0.10;;;;;;;;;;5012876;28;20509;-82
2023/06/28 00:21:36;;;;;;;0.30;0.30;;;;;;;;;;5022874;28;20056;-83
2023/06/28 00:27:35;;;;;;;0.20;0.10;;;;;;;;;;5018494;28;20510;-82
2023/06/28 00:30:22;;;;;;;0.20;0.10;;;;;;;;;;5027830;28;20077;-83
2023/06/28 00:32:56;;;;;;;0.20;0.10;;;;;;;;;;5022607;28;20063;-83
2023/06/28 00:35:32;;;;;;;0.20;0.10;;;;;;;;;;5010684;28;20040;-84
2023/06/28 00:38:01;;;;;;;0.20;0.10;;;;;;;;;;5004906;28;20041;-83
2023/06/28 00:40:33;;;;;;;0.47;0.47;;;;;;;;;;5011875;28;20077;-82
2023/06/28 00:43:01;;;;;;;0.20;0.10;;;;;;;;;;5030119;28;20036;-82
2023/06/28 00:45:33;;;;;;;0.20;0.10;;;;;;;;;;5009575;28;20055;-83
2023/06/28 00:47:59;;;;;;;0.20;0.10;;;;;;;;;;5016143;28;20048;-83
2023/06/28 00:50:26;;;;;;;0.55;0.30;;;;;;;;;;5032367;28;20056;-82
2023/06/28 00:53:10;;;;;;;0.20;0.10;;;;;;;;;;5013631;28;20045;-83
2023/06/28 00:55:36;;;;;;;0.20;0.10;;;;;;;;;;5005829;28;20072;-82
2023/06/28 00:58:02;;;;;;;0.20;0.10;;;;;;;;;;5010670;28;20036;-83
2023/06/28 01:00:31;;;;;;;0.30;0.30;;;;;;;;;;5004488;28;20072;-82
2023/06/28 01:03:00;;;;;;;0.20;0.10;;;;;;;;;;5015206;28;20833;-82
2023/06/28 01:05:26;;;;;;;0.40;0.30;;;;;;;;;;5031129;28;20156;-82
2023/06/28 01:07:54;;;;;;;0.50;0.20;;;;;;;;;;5029194;28;20047;-82
2023/06/28 01:10:26;;;;;;;0.20;0.10;;;;;;;;;;5038006;28;20037;-82
2023/06/28 01:12:52;;;;;;;0.20;0.10;;;;;;;;;;5018614;28;20056;-83
2023/06/28 01:15:21;;;;;;;0.20;0.10;;;;;;;;;;5006533;23;20045;-82
2023/06/28 01:17:47;;;;;;;0.35;0.35;;;;;;;;;;5002382;28;20044;-82
2023/06/28 01:20:14;;;;;;;0.20;0.10;;;;;;;;;;5001480;28;20128;-82
2023/06/28 01:22:41;;;;;;;0.40;0.22;;;;;;;;;;5004136;28;20437;-82
2023/06/28 01:25:09;;;;;;;0.20;0.10;;;;;;;;;;4990907;28;20042;-82
2023/06/28 01:27:35;;;;;;;0.25;0.10;;;;;;;;;;4981141;28;20041;-82
2023/06/28 01:30:01;;;;;;;0.43;0.20;;;;;;;;;;4983585;28;20146;-82
2023/06/28 01:32:27;;;;;;;0.20;0.10;;;;;;;;;;4979185;28;20426;-82
2023/06/28 01:34:53;;;;;;;0.20;0.10;;;;;;;;;;4972912;28;20056;-82
2023/06/28 01:37:20;;;;;;;4.70;1.10;;;;;;;;;;4984575;28;20242;-82
2023/06/28 01:39:47;;;;;;;0.20;0.10;;;;;;;;;;4998380;28;20038;-82
2023/06/28 01:42:13;;;;;;;0.20;0.10;;;;;;;;;;4999236;28;20068;-81
2023/06/28 01:44:39;;;;;;;0.20;0.10;;;;;;;;;;4995684;28;20045;-82
2023/06/28 01:47:06;;;;;;;0.20;0.10;;;;;;;;;;4976615;28;20165;-82
2023/06/28 01:49:33;;;;;;;0.20;0.10;;;;;;;;;;5004069;28;20052;-81
2023/06/28 01:51:59;;;;;;;0.52;0.22;;;;;;;;;;4978433;28;20119;-81
2023/06/28 01:54:27;;;;;;;0.20;0.10;;;;;;;;;;5004125;28;20128;-82
2023/06/28 01:56:53;;;;;;;0.20;0.17;;;;;;;;;;5001684;28;20050;-82
2023/06/28 01:59:19;;;;;;;0.20;0.10;;;;;;;;;;5004941;28;20036;-82
2023/06/28 02:01:45;;;;;;;0.20;0.10;;;;;;;;;;5012562;28;20072;-82
2023/06/28 02:04:11;;;;;;;0.20;0.10;;;;;;;;;;5004095;28;20124;-82
2023/06/28 02:06:41;;;;;;;0.20;0.10;;;;;;;;;;4980046;28;20123;-82
2023/06/28 02:09:07;;;;;;;0.20;0.10;;;;;;;;;;5008376;28;20332;-82
2023/06/28 02:11:33;;;;;;;0.20;0.15;;;;;;;;;;4999706;28;20073;-81
2023/06/28 02:13:59;;;;;;;0.20;0.10;;;;;;;;;;4988239;28;20115;-82
2023/06/28 02:16:27;;;;;;;0.30;0.20;;;;;;;;;;4991171;28;20040;-82
2023/06/28 02:18:57;;;;;;;0.20;0.10;;;;;;;;;;5003800;28;20653;-81
2023/06/28 02:21:23;;;;;;;0.20;0.10;;;;;;;;;;4970936;28;20041;-82
2023/06/28 02:23:49;;;;;;;0.20;0.10;;;;;;;;;;4980218;28;20046;-82
2023/06/28 02:26:15;;;;;;;0.20;0.10;;;;;;;;;;4975933;28;20683;-82
2023/06/28 02:28:41;;;;;;;0.20;0.10;;;;;;;;;;4996972;28;20514;-81
2023/06/28 02:31:07;;;;;;;0.20;0.10;;;;;;;;;;4998789;28;20523;-81
2023/06/28 02:33:33;;;;;;;0.25;0.10;;;;;;;;;;4995640;28;20372;-81
2023/06/28 02:36:00;;;;;;;0.30;0.17;;;;;;;;;;4990179;28;20037;-82
2023/06/28 02:38:26;;;;;;;0.20;0.10;;;;;;;;;;5005213;28;20560;-81
2023/06/28 02:40:52;;;;;;;0.20;0.10;;;;;;;;;;4984183;28;20038;-82
2023/06/28 02:43:18;;;;;;;0.20;0.10;;;;;;;;;;4980948;28;20045;-81
2023/06/28 02:45:44;;;;;;;0.20;0.05;;;;;;;;;;4978884;28;20514;-82
2023/06/28 02:48:13;;;;;;;0.20;0.20;;;;;;;;;;4995350;28;20506;-82
2023/06/28 02:50:39;;;;;;;0.20;0.10;;;;;;;;;;4987528;28;20413;-81
2023/06/28 02:53:05;;;;;;;0.20;0.10;;;;;;;;;;5003688;28;20452;-82
2023/06/28 02:55:31;;;;;;;0.20;0.10;;;;;;;;;;4985499;28;20038;-82
2023/06/28 02:57:57;;;;;;;0.20;0.20;;;;;;;;;;4988707;28;20041;-82
2023/06/28 03:00:23;;;;;;;0.20;0.10;;;;;;;;;;4980024;28;20273;-82
2023/06/28 03:02:49;;;;;;;0.20;0.10;;;;;;;;;;4985409;28;20048;-83
2023/06/28 03:05:15;;;;;;;0.20;0.10;;;;;;;;;;4979587;28;20413;-81
2023/06/28 03:07:41;;;;;;;0.20;0.10;;;;;;;;;;4976853;28;20041;-81
2023/06/28 03:10:07;;;;;;;1.88;1.02;;;;;;;;;;5001838;28;20099;-81
2023/06/28 03:12:33;;;;;;;0.30;0.20;;;;;;;;;;4987590;28;20036;-81
2023/06/28 03:14:59;;;;;;;0.20;0.10;;;;;;;;;;5016971;28;20037;-81
2023/06/28 03:17:25;;;;;;;0.30;0.25;;;;;;;;;;5031398;28;20444;-81
2023/06/28 03:19:51;;;;;;;0.20;0.10;;;;;;;;;;5019083;28;20123;-81
2023/06/28 03:22:17;;;;;;;0.20;0.10;;;;;;;;;;4996746;28;20073;-81
2023/06/28 03:24:43;;;;;;;0.20;0.10;;;;;;;;;;5028278;28;20048;-81
2023/06/28 03:27:09;;;;;;;0.20;0.10;;;;;;;;;;5000259;28;20040;-81
2023/06/28 03:29:35;;;;;;;0.20;0.10;;;;;;;;;;5001165;28;20115;-81
2023/06/28 03:32:02;;;;;;;0.20;0.20;;;;;;;;;;5022516;28;20060;-81
2023/06/28 03:34:28;;;;;;;0.20;0.10;;;;;;;;;;5021091;28;20045;-82
2023/06/28 03:36:54;;;;;;;1.33;0.50;;;;;;;;;;4997915;28;20975;-81
2023/06/28 03:39:20;;;;;;;0.20;0.10;;;;;;;;;;4985607;28;20041;-82
2023/06/28 03:41:46;;;;;;;0.20;0.10;;;;;;;;;;5018078;28;20087;-82
2023/06/28 03:44:13;;;;;;;0.20;0.10;;;;;;;;;;5019540;28;20391;-82
2023/06/28 03:46:39;;;;;;;0.20;0.10;;;;;;;;;;5006962;28;20120;-82
2023/06/28 03:49:05;;;;;;;0.20;0.10;;;;;;;;;;5009510;28;20648;-82
2023/06/28 03:51:31;;;;;;;0.30;0.20;;;;;;;;;;5023401;28;20056;-82
2023/06/28 03:53:57;;;;;;;0.20;0.10;;;;;;;;;;4995692;28;20160;-83
2023/06/28 03:56:23;;;;;;;0.45;0.30;;;;;;;;;;5007697;28;20049;-83
2023/06/28 03:58:50;;;;;;;0.20;0.10;;;;;;;;;;5003456;28;20064;-83
2023/06/28 04:01:18;;;;;;;0.20;0.10;;;;;;;;;;5000795;28;20064;-83
2023/06/28 04:03:44;;;;;;;0.20;0.10;;;;;;;;;;5012512;28;20040;-82
2023/06/28 04:06:10;;;;;;;1.65;0.32;;;;;;;;;;5040521;28;20045;-82
2023/06/28 04:08:36;;;;;;;0.20;0.10;;;;;;;;;;4995905;28;20691;-82
2023/06/28 04:11:02;;;;;;;0.20;0.10;;;;;;;;;;4999235;28;20091;-83
2023/06/28 04:13:28;;;;;;;0.20;0.10;;;;;;;;;;4988930;28;20074;-83
2023/06/28 04:15:55;;;;;;;0.20;0.13;;;;;;;;;;5005814;28;20033;-84
2023/06/28 04:18:21;;;;;;;0.20;0.10;;;;;;;;;;4997900;28;20029;-83
2023/06/28 04:20:47;;;;;;;0.20;0.10;;;;;;;;;;4997716;28;20086;-82
2023/06/28 04:23:13;;;;;;;0.20;0.10;;;;;;;;;;5018192;28;20076;-83
2023/06/28 04:25:39;;;;;;;0.20;0.10;;;;;;;;;;4990587;28;20063;-83
2023/06/28 04:28:05;;;;;;;0.20;0.10;;;;;;;;;;5019449;28;20055;-83
2023/06/28 04:30:31;;;;;;;0.20;0.10;;;;;;;;;;5020486;28;20515;-83
2023/06/28 04:32:57;;;;;;;0.20;0.10;;;;;;;;;;5022982;28;20329;-82
2023/06/28 04:35:23;;;;;;;0.30;0.20;;;;;;;;;;5011725;28;20041;-83
2023/06/28 04:37:50;;;;;;;0.20;0.10;;;;;;;;;;5013385;28;20273;-83
2023/06/28 04:40:16;;;;;;;0.20;0.10;;;;;;;;;;5001369;28;20037;-82
2023/06/28 04:42:42;;;;;;;0.20;0.00;;;;;;;;;;5024068;28;20516;-82
2023/06/28 04:45:09;;;;;;;0.20;0.10;;;;;;;;;;5022794;28;20436;-82
2023/06/28 04:47:38;;;;;;;0.40;0.32;;;;;;;;;;5001041;28;20064;-82
2023/06/28 04:50:04;;;;;;;0.30;0.20;;;;;;;;;;5005526;28;20038;-84
2023/06/28 04:52:30;;;;;;;0.95;0.55;;;;;;;;;;5005012;28;20736;-82
2023/06/28 04:54:56;;;;;;;0.20;0.10;;;;;;;;;;5022479;28;20048;-82
2023/06/28 04:57:23;;;;;;;0.20;0.17;;;;;;;;;;5029030;28;20048;-82
2023/06/28 04:59:49;;;;;;;0.20;0.10;;;;;;;;;;5013298;28;20116;-81
2023/06/28 05:02:15;;;;;;;0.20;0.10;;;;;;;;;;5017213;28;20186;-82
2023/06/28 05:04:42;;;;;;;0.20;0.10;;;;;;;;;;4997369;28;20058;-81
2023/06/28 05:07:09;;;;;;;0.20;0.10;;;;;;;;;;5020215;28;20797;-81
2023/06/28 05:09:36;;;;;;;0.20;0.13;;;;;;;;;;5025123;28;20072;-81
2023/06/28 05:12:03;;;;;;;0.20;0.13;;;;;;;;;;5026878;28;20041;-81
2023/06/28 05:14:29;;;;;;;0.20;0.05;;;;;;;;;;4997687;28;20405;-81
2023/06/28 05:16:56;;;;;;;0.20;0.10;;;;;;;;;;5026437;28;22477;-82
2023/06/28 05:19:22;;;;;;;0.20;0.10;;;;;;;;;;5003212;28;20082;-82
2023/06/28 05:21:49;;;;;;;0.20;0.10;;;;;;;;;;5025233;28;20119;-80
2023/06/28 05:24:22;;;;;;;0.63;0.63;;;;;;;;;;5021304;28;20098;-81
2023/06/28 05:26:48;;;;;;;0.68;0.20;;;;;;;;;;5023855;28;20045;-81
2023/06/28 05:29:14;;;;;;;0.20;0.10;;;;;;;;;;5028901;28;20041;-80
2023/06/28 05:31:41;;;;;;;0.20;0.10;;;;;;;;;;5027329;28;20041;-81
2023/06/28 05:34:08;;;;;;;0.20;0.10;;;;;;;;;;5031698;28;20053;-80
2023/06/28 05:36:34;;;;;;;0.20;0.10;;;;;;;;;;5026875;28;20052;-80
2023/06/28 05:39:00;;;;;;;0.20;0.10;;;;;;;;;;5021807;28;20120;-81
2023/06/28 05:41:26;;;;;;;0.30;0.15;;;;;;;;;;5016465;28;20029;-80
2023/06/28 05:43:52;;;;;;;0.20;0.20;;;;;;;;;;5009110;28;20048;-82
2023/06/28 05:46:18;;;;;;;0.20;0.10;;;;;;;;;;5025443;28;20041;-83
2023/06/28 05:48:46;;;;;;;0.20;0.10;;;;;;;;;;5005453;28;20071;-82
2023/06/28 05:51:13;;;;;;;0.20;0.10;;;;;;;;;;5011522;28;20037;-81
2023/06/28 05:53:40;;;;;;;0.20;0.10;;;;;;;;;;5023126;28;20045;-81
2023/06/28 05:56:06;;;;;;;0.20;0.10;;;;;;;;;;5022673;28;20098;-82
2023/06/28 05:58:33;;;;;;;0.20;0.10;;;;;;;;;;5001298;28;20041;-82
2023/06/28 06:00:59;;;;;;;0.30;0.30;;;;;;;;;;5026146;28;20040;-82
2023/06/28 06:03:25;;;;;;;0.20;0.10;;;;;;;;;;5018588;28;20053;-81
2023/06/28 06:05:51;;;;;;;0.30;0.20;;;;;;;;;;5022676;28;20417;-81
2023/06/28 06:08:17;;;;;;;0.30;0.20;;;;;;;;;;5017788;28;20040;-81
2023/06/28 06:10:43;;;;;;;0.20;0.10;;;;;;;;;;5024656;28;20041;-81
2023/06/28 06:13:10;;;;;;;0.20;0.10;;;;;;;;;;5017304;28;20159;-80
2023/06/28 06:15:36;;;;;;;0.20;0.10;;;;;;;;;;5022313;28;20109;-82
2023/06/28 06:18:02;;;;;;;0.20;0.13;;;;;;;;;;5011233;28;20661;-81
2023/06/28 06:20:28;;;;;;;0.70;0.38;;;;;;;;;;5034862;28;20036;-81
2023/06/28 06:22:54;;;;;;;0.20;0.15;;;;;;;;;;5016350;28;20123;-82
2023/06/28 06:25:20;;;;;;;0.30;0.30;;;;;;;;;;5036238;28;20041;-82
2023/06/28 06:27:46;;;;;;;0.20;0.10;;;;;;;;;;5024872;28;20466;-82
2023/06/28 06:30:13;;;;;;;0.20;0.10;;;;;;;;;;5027482;28;20238;-82
2023/06/28 06:32:39;;;;;;;0.20;0.10;;;;;;;;;;5012734;28;20041;-82
2023/06/28 06:35:06;;;;;;;0.20;0.10;;;;;;;;;;5023143;28;21495;-82
2023/06/28 06:37:32;;;;;;;0.20;0.00;;;;;;;;;;5028874;28;20064;-82
2023/06/28 06:39:58;;;;;;;0.20;0.10;;;;;;;;;;5028931;28;20047;-82
2023/06/28 06:42:24;;;;;;;0.20;0.10;;;;;;;;;;5027379;28;20128;-82
2023/06/28 06:44:50;;;;;;;0.20;0.10;;;;;;;;;;5009682;28;20047;-81
2023/06/28 06:47:16;;;;;;;0.20;0.10;;;;;;;;;;5026836;28;20343;-81
2023/06/28 06:49:45;;;;;;;0.28;0.15;;;;;;;;;;5031305;28;20382;-84
2023/06/28 06:52:11;;;;;;;0.20;0.10;;;;;;;;;;5045350;28;20060;-81
2023/06/28 06:54:37;;;;;;;0.20;0.10;;;;;;;;;;5021004;28;20033;-82
2023/06/28 06:57:04;;;;;;;0.20;0.10;;;;;;;;;;5009023;28;20036;-82
2023/06/28 06:59:30;;;;;;;0.38;0.28;;;;;;;;;;5003829;28;20410;-82
2023/06/28 07:01:56;;;;;;;0.20;0.10;;;;;;;;;;5008123;28;20082;-81
2023/06/28 07:04:22;;;;;;;0.20;0.10;;;;;;;;;;5017027;28;20033;-83
2023/06/28 07:06:48;;;;;;;0.20;0.10;;;;;;;;;;5006237;28;20108;-83
2023/06/28 07:09:16;;;;;;;0.20;0.10;;;;;;;;;;5023561;28;20080;-82
2023/06/28 07:11:42;;;;;;;0.22;0.20;;;;;;;;;;5009292;28;20080;-83
2023/06/28 07:14:08;;;;;;;0.77;0.77;;;;;;;;;;5041419;22;20047;-78
2023/06/28 07:16:35;;;;;;;0.20;0.20;;;;;;;;;;5019886;28;20049;-80
2023/06/28 07:19:01;;;;;;;0.20;0.10;;;;;;;;;;5022834;28;20489;-79
2023/06/28 07:21:27;;;;;;;0.20;0.10;;;;;;;;;;5033735;28;20037;-79
2023/06/28 07:23:54;;;;;;;0.20;0.10;;;;;;;;;;5038104;28;20044;-79
2023/06/28 07:26:20;;;;;;;0.20;0.10;;;;;;;;;;5039637;28;20085;-79
2023/06/28 07:28:47;;;;;;;0.20;0.10;;;;;;;;;;5025627;28;20051;-78
2023/06/28 07:31:13;;;;;;;0.20;0.10;;;;;;;;;;5021122;28;20045;-78
2023/06/28 07:33:40;;;;;;;0.20;0.10;;;;;;;;;;5021228;28;20068;-78
2023/06/28 07:36:06;;;;;;;0.25;0.10;;;;;;;;;;5041512;28;20410;-80
2023/06/28 07:38:32;;;;;;;0.20;0.10;;;;;;;;;;5027167;28;20040;-80
2023/06/28 07:40:58;;;;;;;0.20;0.20;;;;;;;;;;5031157;28;20500;-79
2023/06/28 07:43:24;;;;;;;0.30;0.10;;;;;;;;;;5021593;28;20032;-81
2023/06/28 07:45:52;;;;;;;0.40;0.20;;;;;;;;;;5025697;28;20055;-80
2023/06/28 07:48:18;;;;;;;0.20;0.20;;;;;;;;;;5048222;28;20578;-81
2023/06/28 07:50:44;;;;;;;0.20;0.10;;;;;;;;;;5042279;28;20045;-82
2023/06/28 07:53:10;;;;;;;0.20;0.10;;;;;;;;;;5026759;28;20412;-80
2023/06/28 07:55:37;;;;;;;0.20;0.10;;;;;;;;;;5038037;28;20485;-82
2023/06/28 07:58:03;;;;;;;0.40;0.20;;;;;;;;;;5025998;28;20029;-81
2023/06/28 08:00:30;;;;;;;0.20;0.10;;;;;;;;;;5022370;28;21190;-80
2023/06/28 08:02:57;;;;;;;0.20;0.00;;;;;;;;;;5044159;28;20040;-78
2023/06/28 08:05:23;;;;;;;0.25;0.15;;;;;;;;;;5026935;28;20043;-81
2023/06/28 08:07:49;;;;;;;0.22;0.15;;;;;;;;;;5044226;28;20123;-81
2023/06/28 08:10:15;;;;;;;0.20;0.10;;;;;;;;;;5029096;28;20044;-79
2023/06/28 08:12:41;;;;;;;0.30;0.28;;;;;;;;;;5038794;28;20593;-78
2023/06/28 08:15:08;;;;;;;0.20;0.10;;;;;;;;;;5037187;28;20094;-80
2023/06/28 08:17:34;;;;;;;0.20;0.10;;;;;;;;;;5020660;28;20036;-79
2023/06/28 08:20:00;;;;;;;0.20;0.10;;;;;;;;;;5041315;28;20047;-79
2023/06/28 08:22:26;;;;;;;0.20;0.10;;;;;;;;;;5017534;28;20449;-80
2023/06/28 08:24:52;;;;;;;0.20;0.10;;;;;;;;;;5020523;28;20520;-78
2023/06/28 08:27:18;;;;;;;0.50;0.43;;;;;;;;;;5045871;28;20044;-80
2023/06/28 08:29:44;;;;;;;0.20;0.10;;;;;;;;;;5039684;28;20466;-81
2023/06/28 08:32:10;;;;;;;0.20;0.10;;;;;;;;;;5018803;28;20028;-81
2023/06/28 08:34:36;;;;;;;0.20;0.10;;;;;;;;;;5036220;28;20037;-78
2023/06/28 08:37:03;;;;;;;0.20;0.20;;;;;;;;;;5042858;28;20037;-79
2023/06/28 08:39:29;;;;;;;0.20;0.10;;;;;;;;;;5024550;28;20543;-80
2023/06/28 08:41:56;;;;;;;0.20;0.10;;;;;;;;;;5021255;28;20114;-80
2023/06/28 08:44:24;;;;;;;0.50;0.28;;;;;;;;;;5021917;28;20041;-80
2023/06/28 08:46:50;;;;;;;0.20;0.10;;;;;;;;;;5026290;28;20036;-80
2023/06/28 08:49:17;;;;;;;0.20;0.10;;;;;;;;;;5023414;28;20523;-78
2023/06/28 08:51:43;;;;;;;0.30;0.20;;;;;;;;;;5041092;28;20040;-79
2023/06/28 08:54:10;;;;;;;0.40;0.20;;;;;;;;;;5042220;28;20044;-79
2023/06/28 08:56:37;;;;;;;0.20;0.20;;;;;;;;;;5043376;28;20028;-79
2023/06/28 08:59:04;;;;;;;0.20;0.03;;;;;;;;;;5022155;28;20041;-79
2023/06/28 09:01:30;;;;;;;0.20;0.10;;;;;;;;;;5042454;28;20037;-79
2023/06/28 09:03:56;;;;;;;0.20;0.10;;;;;;;;;;5040654;28;20045;-79
2023/06/28 09:06:22;;;;;;;0.20;0.13;;;;;;;;;;5037780;28;20067;-80
2023/06/28 09:08:49;;;;;;;0.20;0.15;;;;;;;;;;5035396;28;20129;-80
2023/06/28 09:11:16;;;;;;;0.20;0.10;;;;;;;;;;5024760;28;20036;-79
2023/06/28 09:13:43;;;;;;;0.20;0.10;;;;;;;;;;5015849;28;20045;-79
2023/06/28 09:16:10;;;;;;;0.20;0.15;;;;;;;;;;5031289;28;20046;-80
2023/06/28 09:18:36;;;;;;;0.20;0.10;;;;;;;;;;5039456;28;20044;-79
2023/06/28 09:21:03;;;;;;;0.20;0.10;;;;;;;;;;5037637;28;20036;-79
2023/06/28 09:23:30;;;;;;;0.50;0.30;;;;;;;;;;5044401;28;20033;-78
2023/06/28 09:25:56;;;;;;;0.63;0.30;;;;;;;;;;5037381;28;20036;-80
2023/06/28 09:28:36;;;;;;;0.50;0.32;;;;;;;;;;5022918;28;20040;-78
2023/06/28 09:31:06;;;;;;;0.20;0.10;;;;;;;;;;5040330;28;20648;-80
2023/06/28 09:33:32;;;;;;;0.20;0.20;;;;;;;;;;5042857;28;20040;-80
2023/06/28 09:35:59;;;;;;;0.35;0.22;;;;;;;;;;5019420;28;20117;-81
2023/06/28 09:38:26;;;;;;;0.22;0.20;;;;;;;;;;5047487;28;20047;-79
2023/06/28 09:40:59;;;;;;;0.20;0.10;;;;;;;;;;5044137;28;20139;-78
2023/06/28 09:43:30;;;;;;;0.20;0.10;;;;;;;;;;5044427;28;20057;-81
2023/06/28 09:45:56;;;;;;;0.20;0.17;;;;;;;;;;5040915;28;20109;-81
2023/06/28 09:48:24;;;;;;;0.20;0.10;;;;;;;;;;5021312;28;20405;-81
2023/06/28 09:50:50;;;;;;;0.35;0.32;;;;;;;;;;5024514;28;20075;-82
2023/06/28 09:53:19;;;;;;;1.95;0.30;;;;;;;;;;5045550;28;20041;-78
2023/06/28 09:55:45;;;;;;;0.73;0.63;;;;;;;;;;5022882;28;20091;-79
2023/06/28 09:58:12;;;;;;;0.20;0.13;;;;;;;;;;5021870;28;20044;-83
2023/06/28 10:00:39;;;;;;;0.20;0.10;;;;;;;;;;5033634;28;20047;-79
2023/06/28 10:03:07;;;;;;;0.40;0.40;;;;;;;;;;5024096;28;20044;-79
2023/06/28 10:05:34;;;;;;;0.20;0.20;;;;;;;;;;5038977;28;20287;-80
2023/06/28 10:08:01;;;;;;;0.20;0.10;;;;;;;;;;5038371;28;20538;-80
2023/06/28 10:10:27;;;;;;;0.20;0.10;;;;;;;;;;5037543;28;20133;-80
2023/06/28 10:12:54;;;;;;;0.20;0.20;;;;;;;;;;5041277;28;21085;-80
2023/06/28 10:15:23;;;;;;;0.20;0.10;;;;;;;;;;5043843;28;20048;-79
2023/06/28 10:17:50;;;;;;;0.20;0.20;;;;;;;;;;5040120;28;20504;-79
2023/06/28 10:20:17;;;;;;;0.20;0.13;;;;;;;;;;5019252;28;20044;-82
2023/06/28 10:22:44;;;;;;;0.20;0.10;;;;;;;;;;5043553;28;20183;-80
2023/06/28 10:25:10;;;;;;;0.20;0.13;;;;;;;;;;5025897;28;20445;-80
2023/06/28 10:27:36;;;;;;;0.20;0.17;;;;;;;;;;5033188;28;20040;-79
2023/06/28 10:30:03;;;;;;;0.20;0.10;;;;;;;;;;5030678;28;20131;-82
2023/06/28 10:32:29;;;;;;;0.22;0.20;;;;;;;;;;5028711;28;20170;-82
2023/06/28 10:34:59;;;;;;;0.20;0.13;;;;;;;;;;5048720;28;20126;-82
2023/06/28 10:37:25;;;;;;;0.22;0.20;;;;;;;;;;5025502;28;20477;-82
2023/06/28 10:39:51;;;;;;;0.28;0.28;;;;;;;;;;5041171;28;20520;-80
2023/06/28 10:42:18;;;;;;;0.20;0.10;;;;;;;;;;5031036;28;20041;-78
2023/06/28 10:44:55;;;;;;;0.30;0.22;;;;;;;;;;5047150;28;20060;-78
2023/06/28 10:47:21;;;;;;;0.82;0.82;;;;;;;;;;5026994;28;20032;-82
2023/06/28 10:50:06;;;;;;;0.20;0.10;;;;;;;;;;5024115;28;20115;-81
2023/06/28 10:52:32;;;;;;;0.40;0.40;;;;;;;;;;5029519;28;20060;-80
2023/06/28 10:54:58;;;;;;;0.20;0.20;;;;;;;;;;5024976;28;20048;-79
2023/06/28 10:57:37;;;;;;;0.40;0.40;;;;;;;;;;5045022;28;20113;-82
2023/06/28 11:00:09;;;;;;;1.10;0.35;;;;;;;;;;5044616;28;20400;-84
2023/06/28 11:02:54;;;;;;;0.40;0.38;;;;;;;;;;5041849;28;20401;-82
2023/06/28 11:05:40;;;;;;;0.55;0.40;;;;;;;;;;5040742;28;20037;-82
2023/06/28 11:08:10;;;;;;;0.20;0.10;;;;;;;;;;5026718;28;20616;-81
2023/06/28 11:10:37;;;;;;;0.20;0.20;;;;;;;;;;5034883;28;20036;-80
2023/06/28 11:13:03;;;;;;;0.20;0.20;;;;;;;;;;5011045;28;20037;-82
2023/06/28 11:15:29;;;;;;;0.20;0.20;;;;;;;;;;5026423;28;20646;-80
2023/06/28 11:18:06;;;;;;;0.60;0.28;;;;;;;;;;5044479;28;20127;-83
2023/06/28 11:20:32;;;;;;;0.90;0.35;;;;;;;;;;5042860;28;20064;-80
2023/06/28 11:22:58;;;;;;;0.20;0.15;;;;;;;;;;5032758;28;20044;-81
2023/06/28 11:25:28;;;;;;;0.50;0.43;;;;;;;;;;5039751;28;20090;-82
2023/06/28 11:27:57;;;;;;;0.20;0.10;;;;;;;;;;5025179;28;20045;-81
2023/06/28 11:30:43;;;;;;;0.20;0.10;;;;;;;;;;5045045;28;21299;-81
2023/06/28 11:33:11;;;;;;;0.47;0.40;;;;;;;;;;5023076;28;21277;-79
2023/06/28 11:35:37;;;;;;;0.43;0.43;;;;;;;;;;5024215;28;20044;-81
2023/06/28 11:38:04;;;;;;;0.25;0.25;;;;;;;;;;5027218;28;20036;-81
2023/06/28 11:40:30;;;;;;;0.20;0.15;;;;;;;;;;5027899;28;20040;-81
2023/06/28 11:42:57;;;;;;;0.20;0.20;;;;;;;;;;5029572;28;20040;-82
2023/06/28 11:45:23;;;;;;;1.13;0.47;;;;;;;;;;5035426;28;20043;-81
2023/06/28 11:47:49;;;;;;;0.20;0.20;;;;;;;;;;5025196;28;20040;-80
2023/06/28 11:50:15;;;;;;;0.20;0.20;;;;;;;;;;5026894;28;20154;-85
2023/06/28 11:52:46;;;;;;;0.52;0.22;;;;;;;;;;5024422;28;20050;-82
2023/06/28 11:55:14;;;;;;;0.20;0.10;;;;;;;;;;5042240;28;20939;-81
2023/06/28 11:57:45;;;;;;;0.40;0.40;;;;;;;;;;5017112;28;20139;-80
2023/06/28 12:00:12;;;;;;;4.25;0.40;;;;;;;;;;5046353;28;20120;-81
2023/06/28 12:02:47;;;;;;;0.20;0.20;;;;;;;;;;5043745;28;20044;-81
2023/06/28 12:05:16;;;;;;;0.40;0.25;;;;;;;;;;5039254;28;20043;-82
2023/06/28 12:07:42;;;;;;;0.35;0.20;;;;;;;;;;5016965;28;20059;-83
2023/06/28 12:10:11;;;;;;;0.30;0.20;;;;;;;;;;5037653;28;20063;-80
2023/06/28 12:12:38;;;;;;;0.20;0.10;;;;;;;;;;5026639;28;20032;-78
2023/06/28 12:15:05;;;;;;;0.20;0.17;;;;;;;;;;5025936;28;20040;-82
2023/06/28 12:17:37;;;;;;;0.22;0.20;;;;;;;;;;5018547;28;20064;-81
2023/06/28 12:20:04;;;;;;;0.20;0.20;;;;;;;;;;5026219;28;20068;-81
2023/06/28 12:22:38;;;;;;;0.20;0.10;;;;;;;;;;5039032;28;20036;-84
2023/06/28 12:25:04;;;;;;;0.20;0.13;;;;;;;;;;5023119;28;20040;-80
2023/06/28 12:27:30;;;;;;;0.20;0.10;;;;;;;;;;5026947;28;20044;-82
2023/06/28 12:29:56;;;;;;;0.60;0.40;;;;;;;;;;5030397;28;20067;-82
2023/06/28 12:32:24;;;;;;;0.45;0.43;;;;;;;;;;5022480;28;20090;-80
2023/06/28 12:34:51;;;;;;;0.20;0.10;;;;;;;;;;5022594;28;20068;-80
2023/06/28 12:37:18;;;;;;;0.20;0.10;;;;;;;;;;5038728;28;20033;-81
2023/06/28 12:39:44;;;;;;;0.45;0.40;;;;;;;;;;5026939;28;20544;-81
2023/06/28 12:42:11;;;;;;;0.40;0.40;;;;;;;;;;5042011;28;20516;-81
2023/06/28 12:44:50;;;;;;;0.20;0.10;;;;;;;;;;5024951;28;20084;-82
2023/06/28 12:47:16;;;;;;;0.20;0.10;;;;;;;;;;5043871;28;20828;-80
2023/06/28 12:49:44;;;;;;;0.20;0.10;;;;;;;;;;5024941;28;20051;-82
2023/06/28 12:52:10;;;;;;;0.60;0.60;;;;;;;;;;5022000;28;20409;-80
2023/06/28 12:54:36;;;;;;;0.20;0.10;;;;;;;;;;5029085;28;20044;-83
2023/06/28 12:57:03;;;;;;;0.20;0.10;;;;;;;;;;5026040;28;20826;-81
2023/06/28 12:59:33;;;;;;;0.20;0.10;;;;;;;;;;5024394;28;20699;-83
2023/06/28 13:01:59;;;;;;;0.50;0.50;;;;;;;;;;5041957;28;20036;-82
2023/06/28 13:04:31;;;;;;;0.20;0.20;;;;;;;;;;5023323;28;20861;-84
2023/06/28 13:06:57;;;;;;;0.52;0.20;;;;;;;;;;5037283;28;20052;-81
2023/06/28 13:09:24;;;;;;;0.20;0.20;;;;;;;;;;5027728;28;20126;-84
2023/06/28 13:12:04;;;;;;;0.20;0.10;;;;;;;;;;5110129;27;20541;-80
2023/06/28 13:14:30;;;;;;;0.55;0.40;;;;;;;;;;5116368;22;20029;-82
2023/06/28 13:16:59;;;;;;;0.73;0.25;;;;;;;;;;5058888;28;20056;-82
2023/06/28 13:19:25;;;;;;;0.43;0.43;;;;;;;;;;5082693;28;20498;-82
2023/06/28 13:21:51;;;;;;;0.20;0.10;;;;;;;;;;5086906;28;20532;-81
2023/06/28 13:24:24;;;;;;;0.43;0.25;;;;;;;;;;5088573;28;20185;-82
2023/06/28 13:26:51;;;;;;;0.25;0.25;;;;;;;;;;5086211;28;20514;-81
2023/06/28 13:29:18;;;;;;;0.47;0.47;;;;;;;;;;5085135;28;20040;-80
2023/06/28 13:31:45;;;;;;;0.30;0.20;;;;;;;;;;5092703;28;20108;-82
2023/06/28 13:34:13;;;;;;;0.20;0.10;;;;;;;;;;5068881;28;20028;-81
2023/06/28 13:36:39;;;;;;;0.20;0.10;;;;;;;;;;5085400;28;20049;-84
2023/06/28 13:39:05;;;;;;;0.20;0.15;;;;;;;;;;5088189;28;20518;-82
2023/06/28 13:41:31;;;;;;;0.35;0.32;;;;;;;;;;5074763;28;20687;-82
2023/06/28 13:43:57;;;;;;;0.30;0.30;;;;;;;;;;5088989;28;20074;-82
2023/06/28 13:46:23;;;;;;;0.20;0.17;;;;;;;;;;5071302;28;20067;-80
2023/06/28 13:48:49;;;;;;;0.20;0.10;;;;;;;;;;5083716;28;20795;-83
2023/06/28 13:51:15;;;;;;;0.20;0.10;;;;;;;;;;5067872;28;20432;-82
2023/06/28 13:53:41;;;;;;;0.50;0.45;;;;;;;;;;5079563;28;20706;-82
2023/06/28 13:56:07;;;;;;;0.40;0.40;;;;;;;;;;5081674;28;20036;-81
2023/06/28 13:58:34;;;;;;;0.40;0.20;;;;;;;;;;5088713;28;20095;-82
2023/06/28 14:01:00;;;;;;;0.40;0.30;;;;;;;;;;5086691;28;20622;-81
2023/06/28 14:03:27;;;;;;;0.20;0.10;;;;;;;;;;5082644;28;20416;-85
2023/06/28 14:05:54;;;;;;;0.30;0.20;;;;;;;;;;5084330;28;20068;-81
2023/06/28 14:08:20;;;;;;;0.47;0.47;;;;;;;;;;5086322;28;20105;-83
2023/06/28 14:10:46;;;;;;;1.02;0.63;;;;;;;;;;5081763;28;20526;-81
2023/06/28 14:13:13;;;;;;;0.38;0.30;;;;;;;;;;5081573;28;20123;-81
2023/06/28 14:15:40;;;;;;;0.20;0.10;;;;;;;;;;5091831;28;20040;-82
2023/06/28 14:18:06;;;;;;;0.20;0.20;;;;;;;;;;5082703;28;20040;-81
2023/06/28 14:20:32;;;;;;;0.20;0.20;;;;;;;;;;5090331;28;20463;-82
2023/06/28 14:22:58;;;;;;;0.25;0.25;;;;;;;;;;5066185;28;20035;-80
2023/06/28 14:25:24;;;;;;;0.65;0.52;;;;;;;;;;5084631;28;20036;-83
2023/06/28 14:27:50;;;;;;;0.40;0.20;;;;;;;;;;5075986;28;20068;-83
2023/06/28 14:30:18;;;;;;;0.63;0.63;;;;;;;;;;5073590;28;20037;-81
2023/06/28 14:32:46;;;;;;;0.20;0.10;;;;;;;;;;5079991;28;20044;-81
2023/06/28 14:35:13;;;;;;;0.20;0.10;;;;;;;;;;5075858;28;20051;-80
2023/06/28 14:37:39;;;;;;;0.50;0.45;;;;;;;;;;5080639;28;20036;-82
2023/06/28 14:40:06;;;;;;;0.20;0.10;;;;;;;;;;5082498;28;20063;-81
2023/06/28 14:42:32;;;;;;;1.02;1.02;;;;;;;;;;5062715;28;20031;-81
2023/06/28 14:44:58;;;;;;;0.38;0.38;;;;;;;;;;5083749;28;20401;-83
2023/06/28 14:47:24;;;;;;;0.20;0.20;;;;;;;;;;5065128;28;20062;-81